createdAt,value
2023-10-29T00:01:29.790Z,99.90
2023-10-29T00:04:15.508Z,99.90
2023-10-29T00:07:00.849Z,99.90
2023-10-29T00:09:46.319Z,99.90
2023-10-29T00:12:31.828Z,99.90
2023-10-29T00:15:17.670Z,99.90
2023-10-29T00:18:03.139Z,99.90
2023-10-29T00:20:48.455Z,99.90
2023-10-29T00:23:34.551Z,99.90
2023-10-29T00:26:19.994Z,99.90
2023-10-29T00:29:05.421Z,99.90
2023-10-29T00:31:50.899Z,99.90
2023-10-29T00:34:36.516Z,99.90
2023-10-29T00:37:22.020Z,99.90
2023-10-29T00:40:08.314Z,99.90
2023-10-29T00:42:53.420Z,99.90
2023-10-29T00:45:39.269Z,99.90
2023-10-29T00:48:25.957Z,99.90
2023-10-29T00:51:12.024Z,99.90
2023-10-29T00:53:57.739Z,99.90
2023-10-29T00:56:43.275Z,99.90
2023-10-29T00:59:31.746Z,99.90
2023-10-29T01:02:16.956Z,99.90
2023-10-29T01:05:06.204Z,99.90
2023-10-29T01:07:51.422Z,99.90
2023-10-29T01:10:37.093Z,99.90
2023-10-29T01:13:22.432Z,99.90
2023-10-29T01:16:08.230Z,99.90
2023-10-29T01:18:53.431Z,99.90
2023-10-29T01:21:39.225Z,99.90
2023-10-29T01:24:25.392Z,99.90
2023-10-29T01:27:11.292Z,99.80
2023-10-29T01:29:56.770Z,99.70
2023-10-29T01:32:42.462Z,99.60
2023-10-29T01:35:28.336Z,99.90
2023-10-29T01:38:13.964Z,99.70
2023-10-29T01:40:59.762Z,99.70
2023-10-29T01:43:45.095Z,99.70
2023-10-29T01:46:30.299Z,99.80
2023-10-29T01:49:15.695Z,99.90
2023-10-29T01:52:01.132Z,99.90
2023-10-29T01:54:46.768Z,99.90
2023-10-29T01:57:33.747Z,99.90
2023-10-29T02:00:20.306Z,99.90
2023-10-29T02:03:05.510Z,99.70
2023-10-29T02:05:50.931Z,99.90
2023-10-29T02:08:36.239Z,99.90
2023-10-29T02:11:21.725Z,99.90
2023-10-29T02:14:07.959Z,99.90
2023-10-29T02:16:53.176Z,99.90
2023-10-29T02:19:39.620Z,99.70
2023-10-29T02:22:25.966Z,99.90
2023-10-29T02:25:11.169Z,99.60
2023-10-29T02:27:56.686Z,99.70
2023-10-29T02:30:42.091Z,99.90
2023-10-29T02:33:27.757Z,99.90
2023-10-29T02:36:14.019Z,99.90
2023-10-29T02:38:59.421Z,99.90
2023-10-29T02:41:45.022Z,99.90
2023-10-29T02:44:30.318Z,99.90
2023-10-29T02:47:15.908Z,99.90
2023-10-29T02:50:01.268Z,99.90
2023-10-29T02:52:46.569Z,99.90
2023-10-29T02:55:32.544Z,99.80
2023-10-29T02:58:17.959Z,99.90
2023-10-29T03:01:08.349Z,99.90
2023-10-29T03:03:53.735Z,99.80
2023-10-29T03:06:40.513Z,99.90
2023-10-29T03:09:25.689Z,99.60
2023-10-29T03:12:11.262Z,99.90
2023-10-29T03:14:56.689Z,99.90
2023-10-29T03:17:42.258Z,99.80
2023-10-29T03:20:27.629Z,99.90
2023-10-29T03:23:13.299Z,99.90
2023-10-29T03:26:03.476Z,99.90
2023-10-29T03:28:49.422Z,99.90
2023-10-29T03:31:35.727Z,99.90
2023-10-29T03:34:20.897Z,99.90
2023-10-29T03:37:06.352Z,99.90
2023-10-29T03:39:51.804Z,99.90
2023-10-29T03:42:37.322Z,99.90
2023-10-29T03:45:23.028Z,99.90
2023-10-29T03:48:08.493Z,99.90
2023-10-29T03:50:54.017Z,99.90
2023-10-29T03:53:39.805Z,99.90
2023-10-29T03:56:25.350Z,99.90
2023-10-29T03:59:10.867Z,99.90
2023-10-29T04:01:56.296Z,99.90
2023-10-29T04:04:43.935Z,99.90
2023-10-29T04:07:31.161Z,99.90
2023-10-29T04:10:16.732Z,99.90
2023-10-29T04:13:02.330Z,99.90
2023-10-29T04:15:47.834Z,99.90
2023-10-29T04:18:34.836Z,99.80
2023-10-29T04:21:20.472Z,99.80
2023-10-29T04:24:06.415Z,99.80
2023-10-29T04:26:52.223Z,99.70
2023-10-29T04:29:37.637Z,99.60
2023-10-29T04:32:23.236Z,99.70
2023-10-29T04:35:08.842Z,99.80
2023-10-29T04:37:54.270Z,99.70
2023-10-29T04:40:39.676Z,99.50
2023-10-29T04:43:25.255Z,99.50
2023-10-29T04:46:12.085Z,99.40
2023-10-29T04:48:57.220Z,99.70
2023-10-29T04:51:42.758Z,99.80
2023-10-29T04:54:28.114Z,99.90
2023-10-29T04:57:13.489Z,99.90
2023-10-29T04:59:58.951Z,99.90
2023-10-29T05:02:44.421Z,99.80
2023-10-29T05:05:31.848Z,99.90
2023-10-29T05:08:17.345Z,99.90
2023-10-29T05:11:02.930Z,99.90
2023-10-29T05:13:48.584Z,99.90
2023-10-29T05:16:33.941Z,99.80
2023-10-29T05:19:19.642Z,99.80
2023-10-29T05:22:05.207Z,99.60
2023-10-29T05:24:50.741Z,99.50
2023-10-29T05:27:37.386Z,99.70
2023-10-29T05:30:23.023Z,99.80
2023-10-29T05:33:09.134Z,99.80
2023-10-29T05:35:55.247Z,99.90
2023-10-29T05:38:40.776Z,99.80
2023-10-29T05:41:26.452Z,99.90
2023-10-29T05:44:11.770Z,99.90
2023-10-29T05:46:57.203Z,99.90
2023-10-29T05:49:42.694Z,99.80
2023-10-29T05:52:28.161Z,99.90
2023-10-29T05:55:13.613Z,99.90
2023-10-29T05:57:59.375Z,99.90
2023-10-29T06:00:45.020Z,99.80
2023-10-29T06:03:31.330Z,99.80
2023-10-29T06:06:16.726Z,99.90
2023-10-29T06:09:09.913Z,99.90
2023-10-29T06:12:02.631Z,99.90
2023-10-29T06:14:48.824Z,99.90
2023-10-29T06:17:34.811Z,99.80
2023-10-29T06:20:22.115Z,99.80
2023-10-29T06:23:07.463Z,99.80
2023-10-29T06:25:52.937Z,99.80
2023-10-29T06:28:38.575Z,99.90
2023-10-29T06:31:34.301Z,99.90
2023-10-29T06:34:19.637Z,99.90
2023-10-29T06:37:05.160Z,99.90
2023-10-29T06:39:50.638Z,99.90
2023-10-29T06:42:37.161Z,99.70
2023-10-29T06:45:22.770Z,99.50
2023-10-29T06:48:07.978Z,99.50
2023-10-29T06:50:53.615Z,99.50
2023-10-29T06:53:40.063Z,99.30
2023-10-29T06:56:25.481Z,99.30
2023-10-29T06:59:11.491Z,99.30
2023-10-29T07:02:01.225Z,99.30
2023-10-29T07:04:48.465Z,99.40
2023-10-29T07:07:36.830Z,99.40
2023-10-29T07:10:22.615Z,99.30
2023-10-29T07:13:08.095Z,99.40
2023-10-29T07:15:54.247Z,99.20
2023-10-29T07:18:39.621Z,99.10
2023-10-29T07:21:25.116Z,99.00
2023-10-29T07:24:10.578Z,99.00
2023-10-29T07:26:56.240Z,99.00
2023-10-29T07:29:41.651Z,99.20
2023-10-29T07:32:27.350Z,98.90
2023-10-29T07:35:12.573Z,99.00
2023-10-29T07:37:57.910Z,98.90
2023-10-29T07:40:43.466Z,98.70
2023-10-29T07:43:28.920Z,98.70
2023-10-29T07:46:14.975Z,98.80
2023-10-29T07:49:00.391Z,98.70
2023-10-29T07:51:45.818Z,98.60
2023-10-29T07:54:31.314Z,98.40
2023-10-29T07:57:16.857Z,98.40
2023-10-29T08:00:02.452Z,98.20
2023-10-29T08:02:48.191Z,98.30
2023-10-29T08:05:33.296Z,98.50
2023-10-29T08:08:19.081Z,98.40
2023-10-29T08:11:04.501Z,98.40
2023-10-29T08:13:51.404Z,98.20
2023-10-29T08:16:36.964Z,98.10
2023-10-29T08:19:22.106Z,98.00
2023-10-29T08:22:07.756Z,97.90
2023-10-29T08:24:53.553Z,98.20
2023-10-29T08:27:38.815Z,98.20
2023-10-29T08:30:24.258Z,98.10
2023-10-29T08:33:10.339Z,98.40
2023-10-29T08:35:56.142Z,98.50
2023-10-29T08:38:41.475Z,98.30
2023-10-29T08:41:26.954Z,98.80
2023-10-29T08:44:12.626Z,98.80
2023-10-29T08:46:58.944Z,98.60
2023-10-29T08:49:44.122Z,98.80
2023-10-29T08:52:29.681Z,98.60
2023-10-29T08:55:16.169Z,99.10
2023-10-29T08:58:01.390Z,98.90
2023-10-29T09:00:47.258Z,98.80
2023-10-29T09:03:32.917Z,98.90
2023-10-29T09:06:18.546Z,98.70
2023-10-29T09:09:04.109Z,98.50
2023-10-29T09:11:54.617Z,98.40
2023-10-29T09:14:40.653Z,98.20
2023-10-29T09:17:25.982Z,98.30
2023-10-29T09:20:13.329Z,98.10
2023-10-29T09:22:58.484Z,98.20
2023-10-29T09:25:45.584Z,98.20
2023-10-29T09:28:30.995Z,98.30
2023-10-29T09:31:19.447Z,98.10
2023-10-29T09:34:05.778Z,98.20
2023-10-29T09:36:51.110Z,98.20
2023-10-29T09:39:37.230Z,97.90
2023-10-29T09:42:30.006Z,97.70
2023-10-29T09:45:18.342Z,97.60
2023-10-29T09:48:06.790Z,97.60
2023-10-29T09:50:54.530Z,97.20
2023-10-29T09:53:40.830Z,96.80
2023-10-29T09:56:27.932Z,96.50
2023-10-29T09:59:13.467Z,96.70
2023-10-29T10:01:59.242Z,96.40
2023-10-29T10:04:46.486Z,96.10
2023-10-29T10:07:32.614Z,95.60
2023-10-29T10:10:20.471Z,96.20
2023-10-29T10:13:06.496Z,95.70
2023-10-29T10:16:07.008Z,95.80
2023-10-29T10:18:58.256Z,95.60
2023-10-29T10:21:44.856Z,95.60
2023-10-29T10:24:49.268Z,95.50
2023-10-29T10:27:54.947Z,95.80
2023-10-29T10:30:40.371Z,96.00
2023-10-29T10:33:26.451Z,95.80
2023-10-29T10:36:11.995Z,95.30
2023-10-29T10:38:57.353Z,95.40
2023-10-29T10:41:47.296Z,95.50
2023-10-29T10:44:32.610Z,95.10
2023-10-29T10:47:20.442Z,95.10
2023-10-29T10:50:06.531Z,95.40
2023-10-29T10:52:53.256Z,95.20
2023-10-29T10:55:58.999Z,95.30
2023-10-29T10:58:46.942Z,95.60
2023-10-29T11:01:37.174Z,95.40
2023-10-29T11:04:27.713Z,95.10
2023-10-29T11:07:13.746Z,95.20
2023-10-29T11:10:00.403Z,95.40
2023-10-29T11:12:47.214Z,95.50
2023-10-29T11:15:47.997Z,95.40
2023-10-29T11:18:34.382Z,95.60
2023-10-29T11:21:34.053Z,95.70
2023-10-29T11:24:23.496Z,95.80
2023-10-29T11:27:56.892Z,95.90
2023-10-29T11:30:42.655Z,96.00
2023-10-29T11:33:28.982Z,96.10
2023-10-29T11:36:34.209Z,96.20
2023-10-29T11:39:38.764Z,96.00
2023-10-29T11:42:28.349Z,95.80
2023-10-29T11:45:40.434Z,95.30
2023-10-29T11:48:27.143Z,95.10
2023-10-29T11:51:17.248Z,95.10
2023-10-29T11:54:04.003Z,94.80
2023-10-29T11:56:51.082Z,94.40
2023-10-29T11:59:57.092Z,94.30
2023-10-29T12:02:44.695Z,94.70
2023-10-29T12:05:29.771Z,94.30
2023-10-29T12:08:15.230Z,94.50
2023-10-29T12:11:01.221Z,94.70
2023-10-29T12:13:46.808Z,95.40
2023-10-29T12:16:33.681Z,95.60
2023-10-29T12:19:19.206Z,96.60
2023-10-29T12:22:18.122Z,97.10
2023-10-29T12:25:03.986Z,97.40
2023-10-29T12:27:51.637Z,97.70
2023-10-29T12:30:40.962Z,98.10
2023-10-29T12:33:28.376Z,97.90
2023-10-29T12:36:15.671Z,98.00
2023-10-29T12:39:01.159Z,98.10
2023-10-29T12:41:54.068Z,98.20
2023-10-29T12:44:39.710Z,98.70
2023-10-29T12:47:25.723Z,99.10
2023-10-29T12:50:13.171Z,99.30
2023-10-29T12:53:00.056Z,99.30
2023-10-29T12:55:46.916Z,98.50
2023-10-29T12:58:32.272Z,98.60
2023-10-29T13:01:18.940Z,98.80
2023-10-29T13:04:05.047Z,99.00
2023-10-29T13:06:51.188Z,99.30
2023-10-29T13:09:40.310Z,98.80
2023-10-29T13:12:25.848Z,99.50
2023-10-29T13:15:11.044Z,99.20
2023-10-29T13:17:56.368Z,99.10
2023-10-29T13:20:42.713Z,99.00
2023-10-29T13:23:28.362Z,98.60
2023-10-29T13:26:13.782Z,97.90
2023-10-29T13:28:59.250Z,97.40
2023-10-29T13:31:46.998Z,96.90
2023-10-29T13:34:32.641Z,97.20
2023-10-29T13:37:18.647Z,97.10
2023-10-29T13:40:07.332Z,97.40
2023-10-29T13:42:52.835Z,96.80
2023-10-29T13:45:39.507Z,96.80
2023-10-29T13:48:24.947Z,96.60
2023-10-29T13:51:10.145Z,96.30
2023-10-29T13:53:55.906Z,96.60
2023-10-29T13:56:41.963Z,96.50
2023-10-29T13:59:27.325Z,96.00
2023-10-29T14:02:12.793Z,96.80
2023-10-29T14:04:59.233Z,96.30
2023-10-29T14:07:45.168Z,96.40
2023-10-29T14:10:31.081Z,96.80
2023-10-29T14:13:16.349Z,95.60
2023-10-29T14:16:02.984Z,95.90
2023-10-29T14:18:48.541Z,95.60
2023-10-29T14:21:34.798Z,96.20
2023-10-29T14:24:20.098Z,95.90
2023-10-29T14:27:05.701Z,96.10
2023-10-29T14:29:51.340Z,96.10
2023-10-29T14:32:37.333Z,96.60
2023-10-29T14:35:22.806Z,96.50
2023-10-29T14:38:09.365Z,96.60
2023-10-29T14:40:56.764Z,96.60
2023-10-29T14:43:42.280Z,96.90
2023-10-29T14:46:27.629Z,97.20
2023-10-29T14:49:13.046Z,97.10
2023-10-29T14:51:58.535Z,97.30
2023-10-29T14:54:43.960Z,97.30
2023-10-29T14:57:30.162Z,97.20
2023-10-29T15:00:16.169Z,97.20
2023-10-29T15:03:01.720Z,97.70
2023-10-29T15:05:47.052Z,97.80
2023-10-29T15:08:32.537Z,98.20
2023-10-29T15:11:33.818Z,98.30
2023-10-29T15:14:22.522Z,98.20
2023-10-29T15:17:08.017Z,98.20
2023-10-29T15:19:59.948Z,97.70
2023-10-29T15:22:45.387Z,97.30
2023-10-29T15:25:30.956Z,97.30
2023-10-29T15:28:16.399Z,97.40
2023-10-29T15:31:09.234Z,97.30
2023-10-29T15:33:55.870Z,97.10
2023-10-29T15:36:42.116Z,97.10
2023-10-29T15:39:28.781Z,97.20
2023-10-29T15:42:14.345Z,97.10
2023-10-29T15:44:59.834Z,97.40
2023-10-29T15:47:45.244Z,97.10
2023-10-29T15:50:31.732Z,97.40
2023-10-29T15:53:17.615Z,96.90
2023-10-29T15:56:08.262Z,97.00
2023-10-29T15:58:53.620Z,97.40
2023-10-29T16:01:40.148Z,97.30
2023-10-29T16:04:25.922Z,97.00
2023-10-29T16:07:11.266Z,97.00
2023-10-29T16:09:56.646Z,96.90
2023-10-29T16:12:42.044Z,96.70
2023-10-29T16:15:28.325Z,96.80
2023-10-29T16:18:13.510Z,96.70
2023-10-29T16:20:58.813Z,96.80
2023-10-29T16:23:44.221Z,96.80
2023-10-29T16:26:30.179Z,96.80
2023-10-29T16:29:16.939Z,96.70
2023-10-29T16:32:05.849Z,96.80
2023-10-29T16:34:51.292Z,97.00
2023-10-29T16:37:36.982Z,97.00
2023-10-29T16:40:22.472Z,97.10
2023-10-29T16:43:07.979Z,97.00
2023-10-29T16:45:53.317Z,97.00
2023-10-29T16:48:39.193Z,97.00
2023-10-29T16:51:25.276Z,97.00
2023-10-29T16:54:10.548Z,97.00
2023-10-29T16:56:56.710Z,96.80
2023-10-29T16:59:42.072Z,97.00
2023-10-29T17:02:27.635Z,96.90
2023-10-29T17:05:13.128Z,96.80
2023-10-29T17:07:58.641Z,96.90
2023-10-29T17:10:46.826Z,96.70
2023-10-29T17:13:32.456Z,96.60
2023-10-29T17:16:18.211Z,96.80
2023-10-29T17:19:05.252Z,96.80
2023-10-29T17:21:50.654Z,96.60
2023-10-29T17:24:37.318Z,96.70
2023-10-29T17:27:23.058Z,96.80
2023-10-29T17:30:09.572Z,96.70
2023-10-29T17:32:58.573Z,96.40
2023-10-29T17:35:44.318Z,96.80
2023-10-29T17:38:29.665Z,96.90
2023-10-29T17:41:16.144Z,96.90
2023-10-29T17:44:01.968Z,97.10
2023-10-29T17:46:47.737Z,97.10
2023-10-29T17:49:33.052Z,97.20
2023-10-29T17:52:18.521Z,97.60
2023-10-29T17:55:04.615Z,97.70
2023-10-29T17:57:50.211Z,98.30
2023-10-29T18:00:35.571Z,98.50
2023-10-29T18:03:21.220Z,98.10
2023-10-29T18:06:15.611Z,98.00
2023-10-29T18:09:01.968Z,98.20
2023-10-29T18:11:47.534Z,97.70
2023-10-29T18:14:33.135Z,98.40
2023-10-29T18:17:19.680Z,98.30
2023-10-29T18:20:05.954Z,98.30
2023-10-29T18:22:51.411Z,98.50
2023-10-29T18:25:36.950Z,98.40
2023-10-29T18:28:22.540Z,98.00
2023-10-29T18:31:09.148Z,97.80
2023-10-29T18:33:54.798Z,98.20
2023-10-29T18:36:41.036Z,98.00
2023-10-29T18:39:26.803Z,98.10
2023-10-29T18:42:12.302Z,98.50
2023-10-29T18:44:57.990Z,98.90
2023-10-29T18:47:44.189Z,98.70
2023-10-29T18:50:29.256Z,98.70
2023-10-29T18:53:14.807Z,98.50
2023-10-29T18:56:00.337Z,98.60
2023-10-29T18:58:45.915Z,98.40
2023-10-29T19:01:31.443Z,98.90
2023-10-29T19:04:16.751Z,99.20
2023-10-29T19:07:03.571Z,99.20
2023-10-29T19:09:50.627Z,99.30
2023-10-29T19:12:36.235Z,99.50
2023-10-29T19:15:22.023Z,99.90
2023-10-29T19:18:08.590Z,99.90
2023-10-29T19:20:53.745Z,99.90
2023-10-29T19:23:39.247Z,99.90
2023-10-29T19:26:25.347Z,99.90
2023-10-29T19:29:11.685Z,99.90
2023-10-29T19:31:57.741Z,99.90
2023-10-29T19:34:42.955Z,99.90
2023-10-29T19:37:28.510Z,99.90
2023-10-29T19:40:14.225Z,99.90
2023-10-29T19:42:59.445Z,99.90
2023-10-29T19:45:54.171Z,99.90
2023-10-29T19:48:39.678Z,99.90
2023-10-29T19:51:25.221Z,99.90
2023-10-29T19:54:10.678Z,99.90
2023-10-29T19:56:58.100Z,99.90
2023-10-29T19:59:43.648Z,99.90
2023-10-29T20:02:29.053Z,99.90
2023-10-29T20:05:14.760Z,99.90
2023-10-29T20:08:00.036Z,99.90
2023-10-29T20:10:45.375Z,99.90
2023-10-29T20:13:31.968Z,99.90
2023-10-29T20:16:17.299Z,99.90
2023-10-29T20:19:03.323Z,99.90
2023-10-29T20:21:48.750Z,99.90
2023-10-29T20:24:33.907Z,99.90
2023-10-29T20:27:19.609Z,99.90
2023-10-29T20:30:05.651Z,99.90
2023-10-29T20:32:51.537Z,99.90
2023-10-29T20:35:38.636Z,99.90
2023-10-29T20:38:24.812Z,99.90
2023-10-29T20:41:10.525Z,99.90
2023-10-29T20:43:56.045Z,99.90
2023-10-29T20:46:41.474Z,99.90
2023-10-29T20:49:27.067Z,99.90
2023-10-29T20:52:14.622Z,99.90
2023-10-29T20:55:00.348Z,99.90
2023-10-29T20:57:46.513Z,99.90
2023-10-29T21:00:32.564Z,99.90
2023-10-29T21:03:18.858Z,99.90
2023-10-29T21:06:04.419Z,99.90
2023-10-29T21:08:49.685Z,99.90
2023-10-29T21:11:35.462Z,99.90
2023-10-29T21:14:20.829Z,99.90
2023-10-29T21:17:06.265Z,99.90
2023-10-29T21:19:51.776Z,99.90
2023-10-29T21:22:37.522Z,99.90
2023-10-29T21:25:23.254Z,99.90
2023-10-29T21:28:08.844Z,99.90
2023-10-29T21:30:54.283Z,99.90
2023-10-29T21:33:43.622Z,99.90
2023-10-29T21:36:29.360Z,99.90
2023-10-29T21:39:14.800Z,99.90
2023-10-29T21:42:01.034Z,99.90
2023-10-29T21:44:47.515Z,99.90
2023-10-29T21:47:32.870Z,99.90
2023-10-29T21:50:18.847Z,99.90
2023-10-29T21:53:04.360Z,99.90
2023-10-29T21:55:49.898Z,99.90
2023-10-29T21:58:35.486Z,99.90
2023-10-29T22:01:23.723Z,99.90
2023-10-29T22:04:09.237Z,99.90
2023-10-29T22:06:54.482Z,99.90
2023-10-29T22:09:40.066Z,99.90
2023-10-29T22:12:26.164Z,99.90
2023-10-29T22:15:11.499Z,99.90
2023-10-29T22:17:57.264Z,99.90
2023-10-29T22:20:42.594Z,99.90
2023-10-29T22:23:28.174Z,99.90
2023-10-29T22:26:13.521Z,99.90
2023-10-29T22:28:59.124Z,99.90
2023-10-29T22:31:44.620Z,99.90
2023-10-29T22:34:29.962Z,99.90
2023-10-29T22:37:15.549Z,99.90
2023-10-29T22:40:01.007Z,99.90
2023-10-29T22:42:46.442Z,99.90
2023-10-29T22:45:32.319Z,99.90
2023-10-29T22:48:17.679Z,99.90
2023-10-29T22:51:04.139Z,99.90
2023-10-29T22:53:49.660Z,99.90
2023-10-29T22:56:35.445Z,99.90
2023-10-29T22:59:20.502Z,99.90
2023-10-29T23:02:06.010Z,99.90
2023-10-29T23:04:51.762Z,99.90
2023-10-29T23:07:37.063Z,99.90
2023-10-29T23:10:22.612Z,99.90
2023-10-29T23:13:08.041Z,99.90
2023-10-29T23:15:54.478Z,99.90
2023-10-29T23:18:39.820Z,99.90
2023-10-29T23:21:26.639Z,99.90
2023-10-29T23:24:12.069Z,99.90
2023-10-29T23:26:57.753Z,99.90
2023-10-29T23:29:42.851Z,99.90
2023-10-29T23:32:28.439Z,99.90
2023-10-29T23:35:13.843Z,99.90
2023-10-29T23:37:59.377Z,99.90
2023-10-29T23:40:45.147Z,99.90
2023-10-29T23:43:30.520Z,99.90
2023-10-29T23:46:15.982Z,99.90
2023-10-29T23:49:01.362Z,99.90
2023-10-29T23:51:46.676Z,99.90
2023-10-29T23:54:32.240Z,99.90
2023-10-29T23:57:17.924Z,99.90
